sensor_id;sensor_type;location;lat;lon;timestamp;pressure;altitude;pressure_sealevel;temperature
68588;BMP180;55560;52.174;20.996;2023-03-01T00:01:44;101868.00;;;1.20
68588;BMP180;55560;52.174;20.996;2023-03-01T00:04:12;101867.60;;;1.14
68588;BMP180;55560;52.174;20.996;2023-03-01T00:06:40;101855.40;;;1.10
68588;BMP180;55560;52.174;20.996;2023-03-01T00:09:09;101857.20;;;1.10
68588;BMP180;55560;52.174;20.996;2023-03-01T00:11:37;101859.40;;;1.02
68588;BMP180;55560;52.174;20.996;2023-03-01T00:14:06;101853.60;;;1.04
68588;BMP180;55560;52.174;20.996;2023-03-01T00:16:38;101854.20;;;1.08
68588;BMP180;55560;52.174;20.996;2023-03-01T00:19:18;101851.60;;;1.10
68588;BMP180;55560;52.174;20.996;2023-03-01T00:21:46;101857.40;;;1.10
68588;BMP180;55560;52.174;20.996;2023-03-01T00:24:14;101851.80;;;1.10
68588;BMP180;55560;52.174;20.996;2023-03-01T00:26:42;101847.80;;;1.10
68588;BMP180;55560;52.174;20.996;2023-03-01T00:29:10;101852.20;;;1.04
68588;BMP180;55560;52.174;20.996;2023-03-01T00:31:38;101849.20;;;1.00
68588;BMP180;55560;52.174;20.996;2023-03-01T00:34:06;101841.60;;;1.00
68588;BMP180;55560;52.174;20.996;2023-03-01T00:36:36;101844.80;;;1.00
68588;BMP180;55560;52.174;20.996;2023-03-01T00:39:10;101837.60;;;1.00
68588;BMP180;55560;52.174;20.996;2023-03-01T00:41:39;101835.80;;;1.00
68588;BMP180;55560;52.174;20.996;2023-03-01T00:44:08;101833.00;;;1.00
68588;BMP180;55560;52.174;20.996;2023-03-01T00:46:37;101836.00;;;1.00
68588;BMP180;55560;52.174;20.996;2023-03-01T00:49:05;101838.20;;;1.00
68588;BMP180;55560;52.174;20.996;2023-03-01T00:51:33;101833.20;;;1.00
68588;BMP180;55560;52.174;20.996;2023-03-01T00:54:02;101825.80;;;1.00
68588;BMP180;55560;52.174;20.996;2023-03-01T00:56:31;101825.80;;;0.90
68588;BMP180;55560;52.174;20.996;2023-03-01T00:59:00;101821.80;;;0.90
68588;BMP180;55560;52.174;20.996;2023-03-01T01:01:30;101826.20;;;0.80
68588;BMP180;55560;52.174;20.996;2023-03-01T01:04:06;101825.80;;;0.80
68588;BMP180;55560;52.174;20.996;2023-03-01T01:06:41;101824.60;;;0.80
68588;BMP180;55560;52.174;20.996;2023-03-01T01:09:15;101824.60;;;0.80
68588;BMP180;55560;52.174;20.996;2023-03-01T01:11:50;101820.60;;;0.80
68588;BMP180;55560;52.174;20.996;2023-03-01T01:14:19;101817.20;;;0.80
68588;BMP180;55560;52.174;20.996;2023-03-01T01:16:48;101808.20;;;0.80
68588;BMP180;55560;52.174;20.996;2023-03-01T01:19:16;101806.20;;;0.70
68588;BMP180;55560;52.174;20.996;2023-03-01T01:21:44;101797.80;;;0.70
68588;BMP180;55560;52.174;20.996;2023-03-01T01:24:12;101797.80;;;0.68
68588;BMP180;55560;52.174;20.996;2023-03-01T01:26:41;101801.20;;;0.68
68588;BMP180;55560;52.174;20.996;2023-03-01T01:29:09;101800.80;;;0.70
68588;BMP180;55560;52.174;20.996;2023-03-01T01:31:39;101797.00;;;0.62
68588;BMP180;55560;52.174;20.996;2023-03-01T01:34:18;101791.40;;;0.70
68588;BMP180;55560;52.174;20.996;2023-03-01T01:36:52;101788.60;;;0.70
68588;BMP180;55560;52.174;20.996;2023-03-01T01:39:23;101783.40;;;0.72
68588;BMP180;55560;52.174;20.996;2023-03-01T01:41:51;101790.40;;;0.76
68588;BMP180;55560;52.174;20.996;2023-03-01T01:49:47;101789.80;;;0.80
68588;BMP180;55560;52.174;20.996;2023-03-01T01:52:20;101786.60;;;0.70
68588;BMP180;55560;52.174;20.996;2023-03-01T01:54:55;101782.00;;;0.70
68588;BMP180;55560;52.174;20.996;2023-03-01T01:57:38;101774.60;;;0.74
68588;BMP180;55560;52.174;20.996;2023-03-01T02:00:12;101768.00;;;0.72
68588;BMP180;55560;52.174;20.996;2023-03-01T02:07:18;101776.80;;;0.80
68588;BMP180;55560;52.174;20.996;2023-03-01T02:09:50;101774.60;;;0.74
68588;BMP180;55560;52.174;20.996;2023-03-01T02:12:23;101772.60;;;0.70
68588;BMP180;55560;52.174;20.996;2023-03-01T02:14:52;101765.80;;;0.70
68588;BMP180;55560;52.174;20.996;2023-03-01T02:17:20;101771.20;;;0.70
68588;BMP180;55560;52.174;20.996;2023-03-01T02:22:37;101771.80;;;0.60
68588;BMP180;55560;52.174;20.996;2023-03-01T02:30:49;101767.80;;;0.50
68588;BMP180;55560;52.174;20.996;2023-03-01T02:33:38;101764.40;;;0.48
68588;BMP180;55560;52.174;20.996;2023-03-01T02:36:21;101759.60;;;0.40
68588;BMP180;55560;52.174;20.996;2023-03-01T02:38:53;101761.80;;;0.38
68588;BMP180;55560;52.174;20.996;2023-03-01T02:41:23;101761.00;;;0.38
68588;BMP180;55560;52.174;20.996;2023-03-01T02:43:52;101759.20;;;0.40
68588;BMP180;55560;52.174;20.996;2023-03-01T02:46:24;101751.20;;;0.40
68588;BMP180;55560;52.174;20.996;2023-03-01T02:48:56;101748.60;;;0.50
68588;BMP180;55560;52.174;20.996;2023-03-01T02:54:31;101747.20;;;0.60
68588;BMP180;55560;52.174;20.996;2023-03-01T02:57:02;101744.40;;;0.60
68588;BMP180;55560;52.174;20.996;2023-03-01T02:59:34;101747.60;;;0.58
68588;BMP180;55560;52.174;20.996;2023-03-01T03:02:29;101751.60;;;0.56
68588;BMP180;55560;52.174;20.996;2023-03-01T03:05:18;101758.80;;;0.60
68588;BMP180;55560;52.174;20.996;2023-03-01T03:07:47;101748.80;;;0.60
68588;BMP180;55560;52.174;20.996;2023-03-01T03:10:26;101739.20;;;0.60
68588;BMP180;55560;52.174;20.996;2023-03-01T03:13:02;101724.60;;;0.60
68588;BMP180;55560;52.174;20.996;2023-03-01T03:15:31;101723.80;;;0.60
68588;BMP180;55560;52.174;20.996;2023-03-01T03:18:07;101728.20;;;0.60
68588;BMP180;55560;52.174;20.996;2023-03-01T03:20:36;101725.40;;;0.60
68588;BMP180;55560;52.174;20.996;2023-03-01T03:23:04;101721.20;;;0.60
68588;BMP180;55560;52.174;20.996;2023-03-01T03:25:32;101715.60;;;0.60
68588;BMP180;55560;52.174;20.996;2023-03-01T03:28:07;101714.40;;;0.58
68588;BMP180;55560;52.174;20.996;2023-03-01T03:30:40;101709.60;;;0.50
68588;BMP180;55560;52.174;20.996;2023-03-01T03:33:11;101707.40;;;0.50
68588;BMP180;55560;52.174;20.996;2023-03-01T03:35:46;101708.80;;;0.50
68588;BMP180;55560;52.174;20.996;2023-03-01T03:38:17;101704.20;;;0.50
68588;BMP180;55560;52.174;20.996;2023-03-01T03:41:01;101695.60;;;0.50
68588;BMP180;55560;52.174;20.996;2023-03-01T03:43:32;101697.00;;;0.50
68588;BMP180;55560;52.174;20.996;2023-03-01T03:46:00;101697.20;;;0.50
68588;BMP180;55560;52.174;20.996;2023-03-01T03:48:35;101698.60;;;0.50
68588;BMP180;55560;52.174;20.996;2023-03-01T03:51:04;101703.60;;;0.60
68588;BMP180;55560;52.174;20.996;2023-03-01T03:53:35;101712.20;;;0.60
68588;BMP180;55560;52.174;20.996;2023-03-01T03:56:03;101713.20;;;0.70
68588;BMP180;55560;52.174;20.996;2023-03-01T03:58:33;101697.60;;;0.80
68588;BMP180;55560;52.174;20.996;2023-03-01T04:01:02;101687.60;;;0.80
68588;BMP180;55560;52.174;20.996;2023-03-01T04:03:31;101683.00;;;0.80
68588;BMP180;55560;52.174;20.996;2023-03-01T04:06:00;101681.00;;;0.80
68588;BMP180;55560;52.174;20.996;2023-03-01T04:08:28;101689.00;;;0.80
68588;BMP180;55560;52.174;20.996;2023-03-01T04:11:02;101687.80;;;0.70
68588;BMP180;55560;52.174;20.996;2023-03-01T04:13:53;101679.60;;;0.70
68588;BMP180;55560;52.174;20.996;2023-03-01T04:16:22;101678.60;;;0.60
68588;BMP180;55560;52.174;20.996;2023-03-01T04:18:51;101683.20;;;0.50
68588;BMP180;55560;52.174;20.996;2023-03-01T04:21:21;101682.20;;;0.46
68588;BMP180;55560;52.174;20.996;2023-03-01T04:23:49;101691.80;;;0.40
68588;BMP180;55560;52.174;20.996;2023-03-01T04:26:20;101692.80;;;0.40
68588;BMP180;55560;52.174;20.996;2023-03-01T04:28:48;101688.20;;;0.40
68588;BMP180;55560;52.174;20.996;2023-03-01T04:31:19;101685.20;;;0.34
68588;BMP180;55560;52.174;20.996;2023-03-01T04:33:55;101680.00;;;0.30
68588;BMP180;55560;52.174;20.996;2023-03-01T04:36:28;101684.20;;;0.30
68588;BMP180;55560;52.174;20.996;2023-03-01T04:38:57;101684.40;;;0.30
68588;BMP180;55560;52.174;20.996;2023-03-01T04:41:25;101684.20;;;0.30
68588;BMP180;55560;52.174;20.996;2023-03-01T04:43:53;101678.20;;;0.32
68588;BMP180;55560;52.174;20.996;2023-03-01T04:46:21;101675.20;;;0.30
68588;BMP180;55560;52.174;20.996;2023-03-01T04:48:49;101667.60;;;0.30
68588;BMP180;55560;52.174;20.996;2023-03-01T04:51:17;101664.00;;;0.30
68588;BMP180;55560;52.174;20.996;2023-03-01T04:53:46;101664.20;;;0.30
68588;BMP180;55560;52.174;20.996;2023-03-01T04:56:14;101660.00;;;0.40
68588;BMP180;55560;52.174;20.996;2023-03-01T04:58:42;101661.00;;;0.40
68588;BMP180;55560;52.174;20.996;2023-03-01T05:01:14;101656.40;;;0.30
68588;BMP180;55560;52.174;20.996;2023-03-01T05:03:47;101654.20;;;0.30
68588;BMP180;55560;52.174;20.996;2023-03-01T05:06:17;101646.00;;;0.20
68588;BMP180;55560;52.174;20.996;2023-03-01T05:08:45;101648.00;;;0.30
68588;BMP180;55560;52.174;20.996;2023-03-01T05:11:13;101647.40;;;0.30
68588;BMP180;55560;52.174;20.996;2023-03-01T05:13:41;101648.60;;;0.40
68588;BMP180;55560;52.174;20.996;2023-03-01T05:16:10;101653.80;;;0.40
68588;BMP180;55560;52.174;20.996;2023-03-01T05:18:40;101657.40;;;0.40
68588;BMP180;55560;52.174;20.996;2023-03-01T05:21:12;101655.40;;;0.48
68588;BMP180;55560;52.174;20.996;2023-03-01T05:23:40;101662.20;;;0.40
68588;BMP180;55560;52.174;20.996;2023-03-01T05:26:09;101657.60;;;0.48
68588;BMP180;55560;52.174;20.996;2023-03-01T05:28:55;101662.60;;;0.50
68588;BMP180;55560;52.174;20.996;2023-03-01T05:31:27;101671.80;;;0.50
68588;BMP180;55560;52.174;20.996;2023-03-01T05:33:55;101673.40;;;0.50
68588;BMP180;55560;52.174;20.996;2023-03-01T05:36:23;101682.60;;;0.50
68588;BMP180;55560;52.174;20.996;2023-03-01T05:38:51;101684.00;;;0.50
68588;BMP180;55560;52.174;20.996;2023-03-01T05:41:19;101689.60;;;0.58
68588;BMP180;55560;52.174;20.996;2023-03-01T05:43:47;101687.20;;;0.52
68588;BMP180;55560;52.174;20.996;2023-03-01T05:46:15;101691.60;;;0.60
68588;BMP180;55560;52.174;20.996;2023-03-01T05:48:43;101693.60;;;0.50
68588;BMP180;55560;52.174;20.996;2023-03-01T05:51:11;101697.40;;;0.40
68588;BMP180;55560;52.174;20.996;2023-03-01T05:53:39;101697.00;;;0.50
68588;BMP180;55560;52.174;20.996;2023-03-01T05:56:07;101692.80;;;0.50
68588;BMP180;55560;52.174;20.996;2023-03-01T05:58:36;101690.60;;;0.50
68588;BMP180;55560;52.174;20.996;2023-03-01T06:01:11;101695.00;;;0.60
68588;BMP180;55560;52.174;20.996;2023-03-01T06:03:40;101694.20;;;0.70
68588;BMP180;55560;52.174;20.996;2023-03-01T06:06:08;101696.20;;;0.70
68588;BMP180;55560;52.174;20.996;2023-03-01T06:08:36;101691.40;;;0.70
68588;BMP180;55560;52.174;20.996;2023-03-01T06:11:04;101692.40;;;0.64
68588;BMP180;55560;52.174;20.996;2023-03-01T06:13:32;101688.60;;;0.70
68588;BMP180;55560;52.174;20.996;2023-03-01T06:16:06;101682.80;;;0.70
68588;BMP180;55560;52.174;20.996;2023-03-01T06:18:36;101684.60;;;0.62
68588;BMP180;55560;52.174;20.996;2023-03-01T06:21:05;101684.20;;;0.62
68588;BMP180;55560;52.174;20.996;2023-03-01T06:23:34;101684.80;;;0.68
68588;BMP180;55560;52.174;20.996;2023-03-01T06:26:06;101681.40;;;0.70
68588;BMP180;55560;52.174;20.996;2023-03-01T06:28:35;101683.20;;;0.70
68588;BMP180;55560;52.174;20.996;2023-03-01T06:31:03;101683.00;;;0.70
68588;BMP180;55560;52.174;20.996;2023-03-01T06:33:31;101686.20;;;0.70
68588;BMP180;55560;52.174;20.996;2023-03-01T06:35:59;101688.80;;;0.72
68588;BMP180;55560;52.174;20.996;2023-03-01T06:38:27;101688.60;;;0.70
68588;BMP180;55560;52.174;20.996;2023-03-01T06:40:55;101690.00;;;0.78
68588;BMP180;55560;52.174;20.996;2023-03-01T06:43:24;101691.60;;;0.80
68588;BMP180;55560;52.174;20.996;2023-03-01T06:45:51;101688.00;;;0.86
68588;BMP180;55560;52.174;20.996;2023-03-01T06:48:19;101688.40;;;0.82
68588;BMP180;55560;52.174;20.996;2023-03-01T06:50:47;101697.00;;;0.90
68588;BMP180;55560;52.174;20.996;2023-03-01T06:53:17;101693.00;;;1.00
68588;BMP180;55560;52.174;20.996;2023-03-01T06:55:45;101689.20;;;1.00
68588;BMP180;55560;52.174;20.996;2023-03-01T06:58:13;101690.20;;;1.10
68588;BMP180;55560;52.174;20.996;2023-03-01T07:00:41;101690.20;;;1.10
68588;BMP180;55560;52.174;20.996;2023-03-01T07:03:10;101685.20;;;1.10
68588;BMP180;55560;52.174;20.996;2023-03-01T07:05:39;101684.60;;;1.10
68588;BMP180;55560;52.174;20.996;2023-03-01T07:08:06;101687.80;;;1.10
68588;BMP180;55560;52.174;20.996;2023-03-01T07:10:34;101684.20;;;1.10
68588;BMP180;55560;52.174;20.996;2023-03-01T07:13:02;101693.80;;;1.10
68588;BMP180;55560;52.174;20.996;2023-03-01T07:15:30;101699.00;;;1.10
68588;BMP180;55560;52.174;20.996;2023-03-01T07:17:58;101694.20;;;1.10
68588;BMP180;55560;52.174;20.996;2023-03-01T07:20:26;101697.00;;;1.10
68588;BMP180;55560;52.174;20.996;2023-03-01T07:22:55;101691.00;;;1.08
68588;BMP180;55560;52.174;20.996;2023-03-01T07:25:24;101687.40;;;1.10
68588;BMP180;55560;52.174;20.996;2023-03-01T07:27:53;101691.40;;;1.20
68588;BMP180;55560;52.174;20.996;2023-03-01T07:30:21;101677.80;;;1.20
68588;BMP180;55560;52.174;20.996;2023-03-01T07:32:49;101676.80;;;1.22
68588;BMP180;55560;52.174;20.996;2023-03-01T07:35:17;101668.80;;;1.30
68588;BMP180;55560;52.174;20.996;2023-03-01T07:37:45;101674.40;;;1.42
68588;BMP180;55560;52.174;20.996;2023-03-01T07:40:13;101664.00;;;1.50
68588;BMP180;55560;52.174;20.996;2023-03-01T07:42:41;101658.40;;;1.60
68588;BMP180;55560;52.174;20.996;2023-03-01T07:45:10;101655.20;;;1.70
68588;BMP180;55560;52.174;20.996;2023-03-01T07:47:39;101661.60;;;1.70
68588;BMP180;55560;52.174;20.996;2023-03-01T07:50:07;101667.60;;;1.80
68588;BMP180;55560;52.174;20.996;2023-03-01T07:52:35;101667.40;;;1.90
68588;BMP180;55560;52.174;20.996;2023-03-01T07:55:04;101673.00;;;1.90
68588;BMP180;55560;52.174;20.996;2023-03-01T07:57:32;101670.40;;;1.90
68588;BMP180;55560;52.174;20.996;2023-03-01T08:00:00;101667.20;;;1.80
68588;BMP180;55560;52.174;20.996;2023-03-01T08:02:38;101669.60;;;1.90
68588;BMP180;55560;52.174;20.996;2023-03-01T08:05:09;101673.40;;;2.00
68588;BMP180;55560;52.174;20.996;2023-03-01T08:07:37;101668.60;;;2.10
68588;BMP180;55560;52.174;20.996;2023-03-01T08:10:06;101668.20;;;2.12
68588;BMP180;55560;52.174;20.996;2023-03-01T08:12:34;101672.20;;;2.24
68588;BMP180;55560;52.174;20.996;2023-03-01T08:15:02;101664.60;;;2.32
68588;BMP180;55560;52.174;20.996;2023-03-01T08:17:29;101666.80;;;2.40
68588;BMP180;55560;52.174;20.996;2023-03-01T08:19:57;101670.40;;;2.50
68588;BMP180;55560;52.174;20.996;2023-03-01T08:22:25;101671.00;;;2.62
68588;BMP180;55560;52.174;20.996;2023-03-01T08:24:53;101673.20;;;2.76
68588;BMP180;55560;52.174;20.996;2023-03-01T08:27:23;101673.40;;;2.90
68588;BMP180;55560;52.174;20.996;2023-03-01T08:29:52;101671.20;;;3.00
68588;BMP180;55560;52.174;20.996;2023-03-01T08:32:19;101670.80;;;3.10
68588;BMP180;55560;52.174;20.996;2023-03-01T08:34:48;101668.80;;;3.20
68588;BMP180;55560;52.174;20.996;2023-03-01T08:37:15;101668.40;;;3.20
68588;BMP180;55560;52.174;20.996;2023-03-01T08:39:43;101667.80;;;3.30
68588;BMP180;55560;52.174;20.996;2023-03-01T08:42:11;101660.40;;;3.40
68588;BMP180;55560;52.174;20.996;2023-03-01T08:44:39;101660.20;;;3.50
68588;BMP180;55560;52.174;20.996;2023-03-01T08:47:07;101662.20;;;3.60
68588;BMP180;55560;52.174;20.996;2023-03-01T08:49:35;101660.40;;;3.70
68588;BMP180;55560;52.174;20.996;2023-03-01T08:52:03;101657.80;;;3.80
68588;BMP180;55560;52.174;20.996;2023-03-01T08:54:31;101660.40;;;3.90
68588;BMP180;55560;52.174;20.996;2023-03-01T08:57:02;101665.20;;;3.90
68588;BMP180;55560;52.174;20.996;2023-03-01T08:59:30;101672.80;;;4.00
68588;BMP180;55560;52.174;20.996;2023-03-01T09:02:13;101676.40;;;4.10
68588;BMP180;55560;52.174;20.996;2023-03-01T09:04:41;101679.00;;;4.20
68588;BMP180;55560;52.174;20.996;2023-03-01T09:07:10;101674.40;;;4.30
68588;BMP180;55560;52.174;20.996;2023-03-01T09:09:38;101668.40;;;4.40
68588;BMP180;55560;52.174;20.996;2023-03-01T09:12:06;101670.80;;;4.50
68588;BMP180;55560;52.174;20.996;2023-03-01T09:14:34;101669.80;;;4.50
68588;BMP180;55560;52.174;20.996;2023-03-01T09:17:05;101670.20;;;4.60
68588;BMP180;55560;52.174;20.996;2023-03-01T09:19:33;101677.40;;;4.60
68588;BMP180;55560;52.174;20.996;2023-03-01T09:22:03;101678.40;;;4.60
68588;BMP180;55560;52.174;20.996;2023-03-01T09:24:30;101675.20;;;4.70
68588;BMP180;55560;52.174;20.996;2023-03-01T09:26:58;101677.40;;;4.70
68588;BMP180;55560;52.174;20.996;2023-03-01T09:29:26;101668.20;;;4.70
68588;BMP180;55560;52.174;20.996;2023-03-01T09:31:54;101666.00;;;4.80
68588;BMP180;55560;52.174;20.996;2023-03-01T09:34:23;101663.80;;;4.80
68588;BMP180;55560;52.174;20.996;2023-03-01T09:36:51;101655.40;;;4.80
68588;BMP180;55560;52.174;20.996;2023-03-01T09:39:19;101658.60;;;4.80
68588;BMP180;55560;52.174;20.996;2023-03-01T09:42:03;101657.40;;;4.80
68588;BMP180;55560;52.174;20.996;2023-03-01T09:44:48;101657.80;;;4.80
68588;BMP180;55560;52.174;20.996;2023-03-01T09:47:22;101651.20;;;4.80
68588;BMP180;55560;52.174;20.996;2023-03-01T09:50:19;101643.60;;;4.90
68588;BMP180;55560;52.174;20.996;2023-03-01T09:52:54;101636.60;;;4.90
68588;BMP180;55560;52.174;20.996;2023-03-01T09:55:33;101637.80;;;4.90
68588;BMP180;55560;52.174;20.996;2023-03-01T09:58:41;101637.60;;;4.90
68588;BMP180;55560;52.174;20.996;2023-03-01T10:01:30;101645.60;;;4.90
68588;BMP180;55560;52.174;20.996;2023-03-01T10:04:44;101634.60;;;4.86
68588;BMP180;55560;52.174;20.996;2023-03-01T10:07:52;101633.00;;;4.90
68588;BMP180;55560;52.174;20.996;2023-03-01T10:10:32;101627.00;;;4.90
68588;BMP180;55560;52.174;20.996;2023-03-01T10:13:29;101626.20;;;4.86
68588;BMP180;55560;52.174;20.996;2023-03-01T10:16:18;101613.40;;;4.90
68588;BMP180;55560;52.174;20.996;2023-03-01T10:18:58;101604.80;;;4.90
68588;BMP180;55560;52.174;20.996;2023-03-01T10:21:27;101601.40;;;5.00
68588;BMP180;55560;52.174;20.996;2023-03-01T10:24:12;101598.00;;;5.00
68588;BMP180;55560;52.174;20.996;2023-03-01T10:26:58;101590.60;;;5.00
68588;BMP180;55560;52.174;20.996;2023-03-01T10:29:41;101594.20;;;5.10
68588;BMP180;55560;52.174;20.996;2023-03-01T10:32:11;101594.80;;;5.14
68588;BMP180;55560;52.174;20.996;2023-03-01T10:34:39;101588.40;;;5.20
68588;BMP180;55560;52.174;20.996;2023-03-01T10:37:13;101591.80;;;5.20
68588;BMP180;55560;52.174;20.996;2023-03-01T10:40:14;101593.20;;;5.30
68588;BMP180;55560;52.174;20.996;2023-03-01T10:42:49;101594.40;;;5.30
68588;BMP180;55560;52.174;20.996;2023-03-01T10:48:14;101589.20;;;5.40
68588;BMP180;55560;52.174;20.996;2023-03-01T10:51:14;101583.80;;;5.40
68588;BMP180;55560;52.174;20.996;2023-03-01T10:53:48;101586.20;;;5.40
68588;BMP180;55560;52.174;20.996;2023-03-01T10:56:16;101586.60;;;5.40
68588;BMP180;55560;52.174;20.996;2023-03-01T10:59:00;101582.40;;;5.50
68588;BMP180;55560;52.174;20.996;2023-03-01T11:01:32;101580.20;;;5.50
68588;BMP180;55560;52.174;20.996;2023-03-01T11:06:34;101582.60;;;5.60
68588;BMP180;55560;52.174;20.996;2023-03-01T11:09:19;101583.80;;;5.60
68588;BMP180;55560;52.174;20.996;2023-03-01T11:12:00;101580.80;;;5.64
68588;BMP180;55560;52.174;20.996;2023-03-01T11:14:36;101580.00;;;5.70
68588;BMP180;55560;52.174;20.996;2023-03-01T11:22:51;101574.20;;;5.80
68588;BMP180;55560;52.174;20.996;2023-03-01T11:25:26;101577.40;;;5.90
68588;BMP180;55560;52.174;20.996;2023-03-01T11:27:56;101571.00;;;5.90
68588;BMP180;55560;52.174;20.996;2023-03-01T11:30:34;101559.60;;;5.90
68588;BMP180;55560;52.174;20.996;2023-03-01T11:33:11;101557.40;;;6.00
68588;BMP180;55560;52.174;20.996;2023-03-01T11:35:53;101551.80;;;6.00
68588;BMP180;55560;52.174;20.996;2023-03-01T11:38:26;101550.40;;;6.00
68588;BMP180;55560;52.174;20.996;2023-03-01T11:44:12;101553.80;;;6.08
68588;BMP180;55560;52.174;20.996;2023-03-01T11:50:46;101543.40;;;6.10
68588;BMP180;55560;52.174;20.996;2023-03-01T11:53:50;101549.40;;;6.10
68588;BMP180;55560;52.174;20.996;2023-03-01T11:56:31;101553.00;;;6.10
68588;BMP180;55560;52.174;20.996;2023-03-01T11:59:50;101549.40;;;6.10
68588;BMP180;55560;52.174;20.996;2023-03-01T12:25:41;101550.60;;;6.52
68588;BMP180;55560;52.174;20.996;2023-03-01T12:28:30;101545.40;;;6.60
68588;BMP180;55560;52.174;20.996;2023-03-01T12:34:51;101541.00;;;6.72
68588;BMP180;55560;52.174;20.996;2023-03-01T12:37:54;101536.60;;;6.80
68588;BMP180;55560;52.174;20.996;2023-03-01T12:40:33;101530.60;;;6.90
68588;BMP180;55560;52.174;20.996;2023-03-01T12:51:35;101526.60;;;7.34
68588;BMP180;55560;52.174;20.996;2023-03-01T12:54:22;101525.80;;;7.40
68588;BMP180;55560;52.174;20.996;2023-03-01T12:56:57;101516.80;;;7.50
68588;BMP180;55560;52.174;20.996;2023-03-01T13:02:39;101509.40;;;7.70
68588;BMP180;55560;52.174;20.996;2023-03-01T13:08:20;101515.00;;;7.96
68588;BMP180;55560;52.174;20.996;2023-03-01T13:11:02;101518.40;;;8.00
68588;BMP180;55560;52.174;20.996;2023-03-01T13:13:31;101509.60;;;8.10
68588;BMP180;55560;52.174;20.996;2023-03-01T13:16:21;101511.00;;;8.10
68588;BMP180;55560;52.174;20.996;2023-03-01T13:19:06;101505.40;;;8.20
68588;BMP180;55560;52.174;20.996;2023-03-01T13:21:34;101505.80;;;8.30
68588;BMP180;55560;52.174;20.996;2023-03-01T13:24:02;101504.80;;;8.40
68588;BMP180;55560;52.174;20.996;2023-03-01T13:26:29;101501.80;;;8.50
68588;BMP180;55560;52.174;20.996;2023-03-01T13:28:58;101503.00;;;8.56
68588;BMP180;55560;52.174;20.996;2023-03-01T13:34:00;101499.00;;;8.70
68588;BMP180;55560;52.174;20.996;2023-03-01T13:41:52;101486.40;;;9.00
68588;BMP180;55560;52.174;20.996;2023-03-01T13:47:15;101484.80;;;9.22
68588;BMP180;55560;52.174;20.996;2023-03-01T13:49:50;101481.40;;;9.40
68588;BMP180;55560;52.174;20.996;2023-03-01T13:55:30;101486.00;;;9.70
68588;BMP180;55560;52.174;20.996;2023-03-01T14:00:41;101476.20;;;9.90
68588;BMP180;55560;52.174;20.996;2023-03-01T14:03:20;101478.20;;;10.10
68588;BMP180;55560;52.174;20.996;2023-03-01T14:06:08;101479.60;;;10.20
68588;BMP180;55560;52.174;20.996;2023-03-01T14:08:46;101475.40;;;10.30
68588;BMP180;55560;52.174;20.996;2023-03-01T14:15:10;101466.00;;;10.50
68588;BMP180;55560;52.174;20.996;2023-03-01T14:17:47;101465.80;;;10.60
68588;BMP180;55560;52.174;20.996;2023-03-01T14:20:33;101469.60;;;10.70
68588;BMP180;55560;52.174;20.996;2023-03-01T14:23:12;101465.40;;;10.80
68588;BMP180;55560;52.174;20.996;2023-03-01T14:25:52;101463.00;;;10.90
68588;BMP180;55560;52.174;20.996;2023-03-01T14:28:31;101467.80;;;11.00
68588;BMP180;55560;52.174;20.996;2023-03-01T14:31:01;101464.80;;;11.10
68588;BMP180;55560;52.174;20.996;2023-03-01T14:33:35;101461.20;;;11.10
68588;BMP180;55560;52.174;20.996;2023-03-01T14:36:08;101457.60;;;11.10
68588;BMP180;55560;52.174;20.996;2023-03-01T14:38:45;101450.00;;;11.10
68588;BMP180;55560;52.174;20.996;2023-03-01T14:41:25;101451.80;;;11.20
68588;BMP180;55560;52.174;20.996;2023-03-01T14:43:59;101453.60;;;11.30
68588;BMP180;55560;52.174;20.996;2023-03-01T14:46:37;101448.80;;;11.30
68588;BMP180;55560;52.174;20.996;2023-03-01T14:51:42;101450.40;;;11.20
68588;BMP180;55560;52.174;20.996;2023-03-01T14:54:42;101446.00;;;11.20
68588;BMP180;55560;52.174;20.996;2023-03-01T14:59:44;101439.60;;;11.02
68588;BMP180;55560;52.174;20.996;2023-03-01T15:02:19;101430.80;;;10.98
68588;BMP180;55560;52.174;20.996;2023-03-01T15:04:52;101430.80;;;10.82
68588;BMP180;55560;52.174;20.996;2023-03-01T15:07:26;101430.80;;;10.78
68588;BMP180;55560;52.174;20.996;2023-03-01T15:09:55;101430.20;;;10.68
68588;BMP180;55560;52.174;20.996;2023-03-01T15:14:56;101422.00;;;10.50
68588;BMP180;55560;52.174;20.996;2023-03-01T15:17:35;101426.00;;;10.40
68588;BMP180;55560;52.174;20.996;2023-03-01T15:20:18;101430.00;;;10.30
68588;BMP180;55560;52.174;20.996;2023-03-01T15:22:49;101438.40;;;10.18
68588;BMP180;55560;52.174;20.996;2023-03-01T15:25:26;101432.00;;;10.02
68588;BMP180;55560;52.174;20.996;2023-03-01T15:27:57;101426.00;;;9.90
68588;BMP180;55560;52.174;20.996;2023-03-01T15:30:33;101429.60;;;9.78
68588;BMP180;55560;52.174;20.996;2023-03-01T15:35:56;101419.40;;;9.50
68588;BMP180;55560;52.174;20.996;2023-03-01T15:38:34;101411.80;;;9.40
68588;BMP180;55560;52.174;20.996;2023-03-01T15:41:19;101411.80;;;9.30
68588;BMP180;55560;52.174;20.996;2023-03-01T15:43:49;101409.80;;;9.20
68588;BMP180;55560;52.174;20.996;2023-03-01T15:46:25;101416.80;;;9.10
68588;BMP180;55560;52.174;20.996;2023-03-01T15:48:57;101417.40;;;9.00
68588;BMP180;55560;52.174;20.996;2023-03-01T15:51:38;101416.00;;;8.90
68588;BMP180;55560;52.174;20.996;2023-03-01T15:54:20;101417.60;;;8.88
68588;BMP180;55560;52.174;20.996;2023-03-01T15:56:49;101423.00;;;8.80
68588;BMP180;55560;52.174;20.996;2023-03-01T15:59:18;101419.60;;;8.68
68588;BMP180;55560;52.174;20.996;2023-03-01T16:01:46;101419.40;;;8.60
68588;BMP180;55560;52.174;20.996;2023-03-01T16:04:18;101419.60;;;8.50
68588;BMP180;55560;52.174;20.996;2023-03-01T16:06:52;101419.40;;;8.44
68588;BMP180;55560;52.174;20.996;2023-03-01T16:09:25;101416.20;;;8.40
68588;BMP180;55560;52.174;20.996;2023-03-01T16:11:54;101416.80;;;8.40
68588;BMP180;55560;52.174;20.996;2023-03-01T16:14:22;101415.80;;;8.30
68588;BMP180;55560;52.174;20.996;2023-03-01T16:16:49;101412.60;;;8.30
68588;BMP180;55560;52.174;20.996;2023-03-01T16:19:17;101406.20;;;8.20
68588;BMP180;55560;52.174;20.996;2023-03-01T16:21:45;101409.60;;;8.10